sensor_id;sensor_type;location;lat;lon;timestamp;P1;durP1;ratioP1;P2;durP2;ratioP2
6985;SDS011;3533;51.246;6.850;2023-02-26T00:01:30;2.93;;;2.73;;
6985;SDS011;3533;51.246;6.850;2023-02-26T00:03:58;3.20;;;1.97;;
6985;SDS011;3533;51.246;6.850;2023-02-26T00:06:26;2.00;;;1.90;;
6985;SDS011;3533;51.246;6.850;2023-02-26T00:08:52;2.10;;;2.00;;
6985;SDS011;3533;51.246;6.850;2023-02-26T00:11:18;2.47;;;2.17;;
6985;SDS011;3533;51.246;6.850;2023-02-26T00:13:44;2.30;;;1.80;;
6985;SDS011;3533;51.246;6.850;2023-02-26T00:16:30;1.97;;;1.87;;
6985;SDS011;3533;51.246;6.850;2023-02-26T00:18:58;2.10;;;2.00;;
6985;SDS011;3533;51.246;6.850;2023-02-26T00:21:26;2.23;;;2.10;;
6985;SDS011;3533;51.246;6.850;2023-02-26T00:23:53;2.07;;;1.97;;
6985;SDS011;3533;51.246;6.850;2023-02-26T00:26:20;2.50;;;2.30;;
6985;SDS011;3533;51.246;6.850;2023-02-26T00:28:47;2.00;;;1.90;;
6985;SDS011;3533;51.246;6.850;2023-02-26T00:31:14;2.03;;;1.93;;
6985;SDS011;3533;51.246;6.850;2023-02-26T00:33:40;2.10;;;2.00;;
6985;SDS011;3533;51.246;6.850;2023-02-26T00:41:43;1.80;;;1.70;;
6985;SDS011;3533;51.246;6.850;2023-02-26T00:44:09;1.97;;;1.77;;
6985;SDS011;3533;51.246;6.850;2023-02-26T00:46:37;1.93;;;1.83;;
6985;SDS011;3533;51.246;6.850;2023-02-26T00:49:22;1.90;;;1.80;;
6985;SDS011;3533;51.246;6.850;2023-02-26T00:51:52;1.80;;;1.70;;
6985;SDS011;3533;51.246;6.850;2023-02-26T00:54:25;2.00;;;1.90;;
6985;SDS011;3533;51.246;6.850;2023-02-26T00:56:53;1.90;;;1.77;;
6985;SDS011;3533;51.246;6.850;2023-02-26T00:59:20;1.97;;;1.87;;
6985;SDS011;3533;51.246;6.850;2023-02-26T01:01:46;1.90;;;1.80;;
6985;SDS011;3533;51.246;6.850;2023-02-26T01:04:13;1.97;;;1.87;;
6985;SDS011;3533;51.246;6.850;2023-02-26T01:06:44;2.00;;;1.90;;
6985;SDS011;3533;51.246;6.850;2023-02-26T01:09:16;1.80;;;1.70;;
6985;SDS011;3533;51.246;6.850;2023-02-26T01:11:47;1.70;;;1.60;;
6985;SDS011;3533;51.246;6.850;2023-02-26T01:14:13;1.93;;;1.83;;
6985;SDS011;3533;51.246;6.850;2023-02-26T01:19:32;2.33;;;1.50;;
6985;SDS011;3533;51.246;6.850;2023-02-26T01:22:32;1.70;;;1.60;;
6985;SDS011;3533;51.246;6.850;2023-02-26T01:25:17;1.70;;;1.60;;
6985;SDS011;3533;51.246;6.850;2023-02-26T01:27:49;1.70;;;1.60;;
6985;SDS011;3533;51.246;6.850;2023-02-26T01:30:15;1.77;;;1.67;;
6985;SDS011;3533;51.246;6.850;2023-02-26T01:38:29;1.73;;;1.63;;
6985;SDS011;3533;51.246;6.850;2023-02-26T01:44:04;1.57;;;1.47;;
6985;SDS011;3533;51.246;6.850;2023-02-26T01:47:02;1.70;;;1.60;;
6985;SDS011;3533;51.246;6.850;2023-02-26T01:49:29;1.70;;;1.60;;
6985;SDS011;3533;51.246;6.850;2023-02-26T01:51:56;1.97;;;1.87;;
6985;SDS011;3533;51.246;6.850;2023-02-26T01:54:33;1.60;;;1.50;;
6985;SDS011;3533;51.246;6.850;2023-02-26T01:57:10;1.83;;;1.60;;
6985;SDS011;3533;51.246;6.850;2023-02-26T01:59:43;1.80;;;1.70;;
6985;SDS011;3533;51.246;6.850;2023-02-26T02:02:12;1.70;;;1.60;;
6985;SDS011;3533;51.246;6.850;2023-02-26T02:04:42;1.50;;;1.40;;
6985;SDS011;3533;51.246;6.850;2023-02-26T02:07:09;1.50;;;1.40;;
6985;SDS011;3533;51.246;6.850;2023-02-26T02:09:36;1.60;;;1.50;;
6985;SDS011;3533;51.246;6.850;2023-02-26T02:17:13;1.80;;;1.70;;
6985;SDS011;3533;51.246;6.850;2023-02-26T02:20:10;1.60;;;1.50;;
6985;SDS011;3533;51.246;6.850;2023-02-26T02:28:34;1.97;;;1.87;;
6985;SDS011;3533;51.246;6.850;2023-02-26T02:31:13;1.50;;;1.40;;
6985;SDS011;3533;51.246;6.850;2023-02-26T02:33:48;1.30;;;1.20;;
6985;SDS011;3533;51.246;6.850;2023-02-26T02:36:25;1.70;;;1.60;;
6985;SDS011;3533;51.246;6.850;2023-02-26T02:39:03;1.50;;;1.40;;
6985;SDS011;3533;51.246;6.850;2023-02-26T02:41:43;1.67;;;1.57;;
6985;SDS011;3533;51.246;6.850;2023-02-26T02:44:14;1.47;;;1.37;;
6985;SDS011;3533;51.246;6.850;2023-02-26T02:46:44;1.60;;;1.50;;
6985;SDS011;3533;51.246;6.850;2023-02-26T02:49:12;1.80;;;1.40;;
6985;SDS011;3533;51.246;6.850;2023-02-26T02:54:52;1.47;;;1.37;;
6985;SDS011;3533;51.246;6.850;2023-02-26T02:57:24;1.90;;;1.50;;
6985;SDS011;3533;51.246;6.850;2023-02-26T02:59:56;1.30;;;1.20;;
6985;SDS011;3533;51.246;6.850;2023-02-26T03:02:33;1.70;;;1.37;;
6985;SDS011;3533;51.246;6.850;2023-02-26T03:05:27;1.70;;;1.60;;
6985;SDS011;3533;51.246;6.850;2023-02-26T03:07:54;1.50;;;1.40;;
6985;SDS011;3533;51.246;6.850;2023-02-26T03:10:23;1.70;;;1.60;;
6985;SDS011;3533;51.246;6.850;2023-02-26T03:12:48;1.70;;;1.60;;
6985;SDS011;3533;51.246;6.850;2023-02-26T03:15:14;1.40;;;1.30;;
6985;SDS011;3533;51.246;6.850;2023-02-26T03:21:00;1.40;;;1.30;;
6985;SDS011;3533;51.246;6.850;2023-02-26T03:23:35;1.63;;;1.53;;
6985;SDS011;3533;51.246;6.850;2023-02-26T03:26:14;1.80;;;1.70;;
6985;SDS011;3533;51.246;6.850;2023-02-26T03:28:53;1.40;;;1.30;;
6985;SDS011;3533;51.246;6.850;2023-02-26T03:31:32;1.37;;;1.27;;
6985;SDS011;3533;51.246;6.850;2023-02-26T03:34:18;1.47;;;1.37;;
6985;SDS011;3533;51.246;6.850;2023-02-26T03:39:26;1.40;;;1.30;;
6985;SDS011;3533;51.246;6.850;2023-02-26T03:45:11;1.40;;;1.30;;
6985;SDS011;3533;51.246;6.850;2023-02-26T03:47:40;1.40;;;1.30;;
6985;SDS011;3533;51.246;6.850;2023-02-26T03:50:14;1.67;;;1.57;;
6985;SDS011;3533;51.246;6.850;2023-02-26T03:52:44;1.50;;;1.40;;
6985;SDS011;3533;51.246;6.850;2023-02-26T03:55:14;1.40;;;1.30;;
6985;SDS011;3533;51.246;6.850;2023-02-26T03:57:55;1.47;;;1.37;;
6985;SDS011;3533;51.246;6.850;2023-02-26T04:00:21;1.50;;;1.40;;
6985;SDS011;3533;51.246;6.850;2023-02-26T04:02:50;1.30;;;1.20;;
6985;SDS011;3533;51.246;6.850;2023-02-26T04:05:25;1.37;;;1.27;;
6985;SDS011;3533;51.246;6.850;2023-02-26T04:07:55;1.40;;;1.30;;
6985;SDS011;3533;51.246;6.850;2023-02-26T04:10:24;1.50;;;1.40;;
6985;SDS011;3533;51.246;6.850;2023-02-26T04:13:00;1.40;;;1.30;;
6985;SDS011;3533;51.246;6.850;2023-02-26T04:15:27;1.27;;;1.17;;
6985;SDS011;3533;51.246;6.850;2023-02-26T04:17:53;1.50;;;1.40;;
6985;SDS011;3533;51.246;6.850;2023-02-26T04:20:18;1.83;;;1.60;;
6985;SDS011;3533;51.246;6.850;2023-02-26T04:22:44;1.13;;;1.03;;
6985;SDS011;3533;51.246;6.850;2023-02-26T04:25:10;1.47;;;1.37;;
6985;SDS011;3533;51.246;6.850;2023-02-26T04:27:35;1.40;;;1.30;;
6985;SDS011;3533;51.246;6.850;2023-02-26T04:30:01;1.50;;;1.10;;
6985;SDS011;3533;51.246;6.850;2023-02-26T04:32:26;1.40;;;1.30;;
6985;SDS011;3533;51.246;6.850;2023-02-26T04:34:52;2.13;;;1.87;;
6985;SDS011;3533;51.246;6.850;2023-02-26T04:37:18;1.30;;;1.20;;
6985;SDS011;3533;51.246;6.850;2023-02-26T04:39:43;1.33;;;1.23;;
6985;SDS011;3533;51.246;6.850;2023-02-26T04:42:09;1.20;;;1.10;;
6985;SDS011;3533;51.246;6.850;2023-02-26T04:44:34;1.43;;;1.30;;
6985;SDS011;3533;51.246;6.850;2023-02-26T04:47:00;1.47;;;1.37;;
6985;SDS011;3533;51.246;6.850;2023-02-26T04:49:25;1.43;;;1.10;;
6985;SDS011;3533;51.246;6.850;2023-02-26T04:51:51;1.33;;;1.23;;
6985;SDS011;3533;51.246;6.850;2023-02-26T04:54:16;1.30;;;1.20;;
6985;SDS011;3533;51.246;6.850;2023-02-26T04:56:42;2.30;;;1.30;;
6985;SDS011;3533;51.246;6.850;2023-02-26T04:59:07;1.40;;;1.30;;
6985;SDS011;3533;51.246;6.850;2023-02-26T05:01:33;1.47;;;1.37;;
6985;SDS011;3533;51.246;6.850;2023-02-26T05:03:59;1.30;;;1.20;;
6985;SDS011;3533;51.246;6.850;2023-02-26T05:06:25;1.30;;;1.20;;
6985;SDS011;3533;51.246;6.850;2023-02-26T05:08:50;1.20;;;1.10;;
6985;SDS011;3533;51.246;6.850;2023-02-26T05:11:16;1.50;;;1.40;;
6985;SDS011;3533;51.246;6.850;2023-02-26T05:13:42;1.43;;;1.33;;
6985;SDS011;3533;51.246;6.850;2023-02-26T05:16:07;1.20;;;1.10;;
6985;SDS011;3533;51.246;6.850;2023-02-26T05:18:33;1.30;;;1.20;;
6985;SDS011;3533;51.246;6.850;2023-02-26T05:20:59;1.30;;;1.20;;
6985;SDS011;3533;51.246;6.850;2023-02-26T05:23:24;1.00;;;0.90;;
6985;SDS011;3533;51.246;6.850;2023-02-26T05:25:51;1.27;;;1.17;;
6985;SDS011;3533;51.246;6.850;2023-02-26T05:28:19;1.20;;;1.10;;
6985;SDS011;3533;51.246;6.850;2023-02-26T05:30:45;1.03;;;0.93;;
6985;SDS011;3533;51.246;6.850;2023-02-26T05:33:10;1.30;;;1.20;;
6985;SDS011;3533;51.246;6.850;2023-02-26T05:35:36;1.10;;;1.00;;
6985;SDS011;3533;51.246;6.850;2023-02-26T05:38:01;1.20;;;1.07;;
6985;SDS011;3533;51.246;6.850;2023-02-26T05:40:27;1.30;;;1.20;;
6985;SDS011;3533;51.246;6.850;2023-02-26T05:42:52;1.10;;;1.00;;
6985;SDS011;3533;51.246;6.850;2023-02-26T05:45:18;1.20;;;1.10;;
6985;SDS011;3533;51.246;6.850;2023-02-26T05:47:44;1.23;;;1.13;;
6985;SDS011;3533;51.246;6.850;2023-02-26T05:50:09;1.20;;;1.10;;
6985;SDS011;3533;51.246;6.850;2023-02-26T05:52:35;1.20;;;1.10;;
6985;SDS011;3533;51.246;6.850;2023-02-26T05:55:01;2.27;;;1.57;;
6985;SDS011;3533;51.246;6.850;2023-02-26T05:57:27;1.20;;;1.03;;
6985;SDS011;3533;51.246;6.850;2023-02-26T05:59:53;1.00;;;0.97;;
6985;SDS011;3533;51.246;6.850;2023-02-26T06:02:18;1.40;;;1.30;;
6985;SDS011;3533;51.246;6.850;2023-02-26T06:04:44;1.20;;;1.10;;
6985;SDS011;3533;51.246;6.850;2023-02-26T06:07:10;1.30;;;1.13;;
6985;SDS011;3533;51.246;6.850;2023-02-26T06:09:35;0.93;;;0.90;;
6985;SDS011;3533;51.246;6.850;2023-02-26T06:12:01;1.30;;;1.07;;
6985;SDS011;3533;51.246;6.850;2023-02-26T06:14:26;1.10;;;1.00;;
6985;SDS011;3533;51.246;6.850;2023-02-26T06:16:52;1.20;;;1.10;;
6985;SDS011;3533;51.246;6.850;2023-02-26T06:19:17;1.13;;;1.03;;
6985;SDS011;3533;51.246;6.850;2023-02-26T06:21:45;1.10;;;1.00;;
6985;SDS011;3533;51.246;6.850;2023-02-26T06:24:11;1.20;;;1.10;;
6985;SDS011;3533;51.246;6.850;2023-02-26T06:26:36;1.10;;;1.00;;
6985;SDS011;3533;51.246;6.850;2023-02-26T06:29:02;1.20;;;1.10;;
6985;SDS011;3533;51.246;6.850;2023-02-26T06:31:27;1.33;;;1.23;;
6985;SDS011;3533;51.246;6.850;2023-02-26T06:33:53;1.30;;;1.20;;
6985;SDS011;3533;51.246;6.850;2023-02-26T06:36:18;1.10;;;1.00;;
6985;SDS011;3533;51.246;6.850;2023-02-26T06:38:44;3.70;;;1.20;;
6985;SDS011;3533;51.246;6.850;2023-02-26T06:41:10;1.80;;;0.90;;
6985;SDS011;3533;51.246;6.850;2023-02-26T06:43:35;1.53;;;1.43;;
6985;SDS011;3533;51.246;6.850;2023-02-26T06:46:01;1.27;;;1.13;;
6985;SDS011;3533;51.246;6.850;2023-02-26T06:48:27;1.30;;;1.00;;
6985;SDS011;3533;51.246;6.850;2023-02-26T06:50:53;1.27;;;1.00;;
6985;SDS011;3533;51.246;6.850;2023-02-26T06:53:19;1.53;;;0.93;;
6985;SDS011;3533;51.246;6.850;2023-02-26T06:55:44;2.23;;;1.10;;
6985;SDS011;3533;51.246;6.850;2023-02-26T06:58:11;1.20;;;1.10;;
6985;SDS011;3533;51.246;6.850;2023-02-26T07:00:37;1.07;;;0.97;;
6985;SDS011;3533;51.246;6.850;2023-02-26T07:03:04;1.43;;;1.00;;
6985;SDS011;3533;51.246;6.850;2023-02-26T07:05:30;3.73;;;0.90;;
6985;SDS011;3533;51.246;6.850;2023-02-26T07:07:56;1.80;;;1.10;;
6985;SDS011;3533;51.246;6.850;2023-02-26T07:10:22;0.83;;;0.83;;
6985;SDS011;3533;51.246;6.850;2023-02-26T07:12:49;1.17;;;1.10;;
6985;SDS011;3533;51.246;6.850;2023-02-26T07:15:15;1.57;;;0.90;;
6985;SDS011;3533;51.246;6.850;2023-02-26T07:17:41;1.10;;;1.00;;
6985;SDS011;3533;51.246;6.850;2023-02-26T07:20:06;1.00;;;0.90;;
6985;SDS011;3533;51.246;6.850;2023-02-26T07:22:34;1.20;;;0.97;;
6985;SDS011;3533;51.246;6.850;2023-02-26T07:25:01;1.10;;;0.77;;
6985;SDS011;3533;51.246;6.850;2023-02-26T07:27:28;1.00;;;0.90;;
6985;SDS011;3533;51.246;6.850;2023-02-26T07:29:54;1.00;;;0.90;;
6985;SDS011;3533;51.246;6.850;2023-02-26T07:32:20;1.10;;;0.93;;
6985;SDS011;3533;51.246;6.850;2023-02-26T07:34:46;0.90;;;0.80;;
6985;SDS011;3533;51.246;6.850;2023-02-26T07:37:11;1.87;;;1.03;;
6985;SDS011;3533;51.246;6.850;2023-02-26T07:39:37;1.17;;;1.07;;
6985;SDS011;3533;51.246;6.850;2023-02-26T07:42:03;0.80;;;0.80;;
6985;SDS011;3533;51.246;6.850;2023-02-26T07:44:29;1.20;;;1.00;;
6985;SDS011;3533;51.246;6.850;2023-02-26T07:46:54;1.07;;;0.90;;
6985;SDS011;3533;51.246;6.850;2023-02-26T07:49:20;1.43;;;1.00;;
6985;SDS011;3533;51.246;6.850;2023-02-26T07:51:45;1.10;;;0.90;;
6985;SDS011;3533;51.246;6.850;2023-02-26T07:54:12;1.13;;;0.97;;
6985;SDS011;3533;51.246;6.850;2023-02-26T07:56:38;1.50;;;1.40;;
6985;SDS011;3533;51.246;6.850;2023-02-26T07:59:05;1.10;;;1.00;;
6985;SDS011;3533;51.246;6.850;2023-02-26T08:01:31;1.20;;;1.10;;
6985;SDS011;3533;51.246;6.850;2023-02-26T08:03:56;4.03;;;1.10;;
6985;SDS011;3533;51.246;6.850;2023-02-26T08:06:22;1.00;;;0.90;;
6985;SDS011;3533;51.246;6.850;2023-02-26T08:08:48;1.23;;;1.13;;
6985;SDS011;3533;51.246;6.850;2023-02-26T08:11:13;1.00;;;0.90;;
6985;SDS011;3533;51.246;6.850;2023-02-26T08:13:39;2.40;;;1.07;;
6985;SDS011;3533;51.246;6.850;2023-02-26T08:16:04;1.00;;;0.90;;
6985;SDS011;3533;51.246;6.850;2023-02-26T08:18:30;1.23;;;1.10;;
6985;SDS011;3533;51.246;6.850;2023-02-26T08:20:56;2.23;;;1.00;;
6985;SDS011;3533;51.246;6.850;2023-02-26T08:23:21;1.10;;;0.97;;
6985;SDS011;3533;51.246;6.850;2023-02-26T08:25:47;2.50;;;1.10;;
6985;SDS011;3533;51.246;6.850;2023-02-26T08:28:14;1.10;;;1.00;;
6985;SDS011;3533;51.246;6.850;2023-02-26T08:30:39;1.10;;;0.93;;
6985;SDS011;3533;51.246;6.850;2023-02-26T08:33:05;2.50;;;1.07;;
6985;SDS011;3533;51.246;6.850;2023-02-26T08:35:31;1.17;;;1.07;;
6985;SDS011;3533;51.246;6.850;2023-02-26T08:37:56;2.67;;;1.13;;
6985;SDS011;3533;51.246;6.850;2023-02-26T08:40:22;1.40;;;0.90;;
6985;SDS011;3533;51.246;6.850;2023-02-26T08:42:48;1.10;;;1.00;;
6985;SDS011;3533;51.246;6.850;2023-02-26T08:45:13;1.07;;;0.97;;
6985;SDS011;3533;51.246;6.850;2023-02-26T08:47:39;1.00;;;0.90;;
6985;SDS011;3533;51.246;6.850;2023-02-26T08:50:07;1.37;;;1.00;;
6985;SDS011;3533;51.246;6.850;2023-02-26T08:52:34;2.03;;;0.90;;
6985;SDS011;3533;51.246;6.850;2023-02-26T08:54:59;1.07;;;0.97;;
6985;SDS011;3533;51.246;6.850;2023-02-26T08:57:25;1.20;;;1.10;;
6985;SDS011;3533;51.246;6.850;2023-02-26T08:59:50;1.10;;;1.00;;
6985;SDS011;3533;51.246;6.850;2023-02-26T09:02:16;1.00;;;0.90;;
6985;SDS011;3533;51.246;6.850;2023-02-26T09:04:41;0.80;;;0.80;;
6985;SDS011;3533;51.246;6.850;2023-02-26T09:07:07;0.80;;;0.80;;
6985;SDS011;3533;51.246;6.850;2023-02-26T09:09:32;1.10;;;0.93;;
6985;SDS011;3533;51.246;6.850;2023-02-26T09:11:58;1.67;;;0.90;;
6985;SDS011;3533;51.246;6.850;2023-02-26T09:14:24;1.07;;;0.97;;
6985;SDS011;3533;51.246;6.850;2023-02-26T09:16:50;0.80;;;0.80;;
6985;SDS011;3533;51.246;6.850;2023-02-26T09:19:15;1.00;;;0.80;;
6985;SDS011;3533;51.246;6.850;2023-02-26T09:21:41;1.03;;;0.83;;
6985;SDS011;3533;51.246;6.850;2023-02-26T09:24:07;1.63;;;0.93;;
6985;SDS011;3533;51.246;6.850;2023-02-26T09:26:33;1.00;;;0.90;;
6985;SDS011;3533;51.246;6.850;2023-02-26T09:28:58;1.07;;;0.90;;
6985;SDS011;3533;51.246;6.850;2023-02-26T09:31:24;1.50;;;0.90;;
6985;SDS011;3533;51.246;6.850;2023-02-26T09:33:49;1.40;;;0.80;;
6985;SDS011;3533;51.246;6.850;2023-02-26T09:36:15;1.10;;;0.80;;
6985;SDS011;3533;51.246;6.850;2023-02-26T09:38:40;0.93;;;0.87;;
6985;SDS011;3533;51.246;6.850;2023-02-26T09:41:09;1.20;;;1.10;;
6985;SDS011;3533;51.246;6.850;2023-02-26T09:46:50;1.13;;;1.03;;
6985;SDS011;3533;51.246;6.850;2023-02-26T09:51:51;0.90;;;0.90;;
6985;SDS011;3533;51.246;6.850;2023-02-26T09:54:25;0.90;;;0.80;;
6985;SDS011;3533;51.246;6.850;2023-02-26T09:56:55;2.00;;;1.37;;
6985;SDS011;3533;51.246;6.850;2023-02-26T09:59:23;0.77;;;0.73;;
6985;SDS011;3533;51.246;6.850;2023-02-26T10:07:38;0.80;;;0.80;;
6985;SDS011;3533;51.246;6.850;2023-02-26T10:12:57;1.07;;;0.90;;
6985;SDS011;3533;51.246;6.850;2023-02-26T10:15:28;0.90;;;0.80;;
6985;SDS011;3533;51.246;6.850;2023-02-26T10:18:08;0.93;;;0.87;;
6985;SDS011;3533;51.246;6.850;2023-02-26T10:23:25;1.10;;;0.90;;
6985;SDS011;3533;51.246;6.850;2023-02-26T10:34:09;0.80;;;0.70;;
6985;SDS011;3533;51.246;6.850;2023-02-26T10:39:50;1.23;;;0.80;;
6985;SDS011;3533;51.246;6.850;2023-02-26T10:42:20;1.20;;;0.93;;
6985;SDS011;3533;51.246;6.850;2023-02-26T10:44:59;0.90;;;0.90;;
6985;SDS011;3533;51.246;6.850;2023-02-26T10:47:45;0.80;;;0.80;;
6985;SDS011;3533;51.246;6.850;2023-02-26T10:50:20;1.40;;;0.77;;
6985;SDS011;3533;51.246;6.850;2023-02-26T10:52:47;1.20;;;0.80;;
6985;SDS011;3533;51.246;6.850;2023-02-26T11:00:39;1.10;;;0.83;;
6985;SDS011;3533;51.246;6.850;2023-02-26T11:03:06;1.37;;;0.90;;
6985;SDS011;3533;51.246;6.850;2023-02-26T11:05:37;0.80;;;0.73;;
6985;SDS011;3533;51.246;6.850;2023-02-26T11:08:12;0.70;;;0.63;;
6985;SDS011;3533;51.246;6.850;2023-02-26T11:10:56;1.10;;;1.00;;
6985;SDS011;3533;51.246;6.850;2023-02-26T11:13:27;0.80;;;0.80;;
6985;SDS011;3533;51.246;6.850;2023-02-26T11:15:55;0.80;;;0.80;;
6985;SDS011;3533;51.246;6.850;2023-02-26T11:18:27;0.97;;;0.80;;
6985;SDS011;3533;51.246;6.850;2023-02-26T11:20:57;0.90;;;0.80;;
6985;SDS011;3533;51.246;6.850;2023-02-26T11:23:25;0.70;;;0.63;;
6985;SDS011;3533;51.246;6.850;2023-02-26T11:25:56;0.90;;;0.70;;
6985;SDS011;3533;51.246;6.850;2023-02-26T11:28:43;2.30;;;0.90;;
6985;SDS011;3533;51.246;6.850;2023-02-26T11:31:15;2.77;;;0.80;;
6985;SDS011;3533;51.246;6.850;2023-02-26T11:33:47;5.73;;;1.47;;
6985;SDS011;3533;51.246;6.850;2023-02-26T11:36:20;1.40;;;0.93;;
6985;SDS011;3533;51.246;6.850;2023-02-26T11:38:57;3.37;;;1.17;;
6985;SDS011;3533;51.246;6.850;2023-02-26T11:41:27;2.70;;;1.03;;
6985;SDS011;3533;51.246;6.850;2023-02-26T11:44:28;3.77;;;0.80;;
6985;SDS011;3533;51.246;6.850;2023-02-26T11:46:52;1.13;;;0.73;;
6985;SDS011;3533;51.246;6.850;2023-02-26T11:49:21;1.30;;;0.80;;
6985;SDS011;3533;51.246;6.850;2023-02-26T11:51:49;1.40;;;0.97;;
6985;SDS011;3533;51.246;6.850;2023-02-26T11:54:45;0.73;;;0.70;;
6985;SDS011;3533;51.246;6.850;2023-02-26T11:57:15;1.83;;;0.90;;
6985;SDS011;3533;51.246;6.850;2023-02-26T11:59:44;0.90;;;0.80;;
6985;SDS011;3533;51.246;6.850;2023-02-26T12:02:18;1.60;;;0.80;;
6985;SDS011;3533;51.246;6.850;2023-02-26T12:04:48;0.97;;;0.87;;
6985;SDS011;3533;51.246;6.850;2023-02-26T12:07:17;1.00;;;0.83;;
6985;SDS011;3533;51.246;6.850;2023-02-26T12:09:44;0.83;;;0.70;;
6985;SDS011;3533;51.246;6.850;2023-02-26T12:12:17;1.13;;;0.80;;
6985;SDS011;3533;51.246;6.850;2023-02-26T12:15:07;1.00;;;0.90;;
6985;SDS011;3533;51.246;6.850;2023-02-26T12:17:56;1.30;;;0.80;;
6985;SDS011;3533;51.246;6.850;2023-02-26T12:20:40;1.10;;;0.83;;
6985;SDS011;3533;51.246;6.850;2023-02-26T12:26:29;1.00;;;0.90;;
6985;SDS011;3533;51.246;6.850;2023-02-26T12:29:12;1.20;;;1.10;;
6985;SDS011;3533;51.246;6.850;2023-02-26T12:34:49;0.83;;;0.80;;
6985;SDS011;3533;51.246;6.850;2023-02-26T12:37:37;0.90;;;0.80;;
6985;SDS011;3533;51.246;6.850;2023-02-26T12:40:39;1.20;;;0.80;;
6985;SDS011;3533;51.246;6.850;2023-02-26T12:43:09;0.80;;;0.70;;
6985;SDS011;3533;51.246;6.850;2023-02-26T12:46:01;0.70;;;0.70;;
6985;SDS011;3533;51.246;6.850;2023-02-26T12:51:14;1.00;;;0.90;;
6985;SDS011;3533;51.246;6.850;2023-02-26T12:53:54;1.00;;;0.80;;
6985;SDS011;3533;51.246;6.850;2023-02-26T13:18:05;0.90;;;0.80;;
6985;SDS011;3533;51.246;6.850;2023-02-26T13:20:41;1.10;;;0.73;;
6985;SDS011;3533;51.246;6.850;2023-02-26T13:23:20;0.70;;;0.70;;
6985;SDS011;3533;51.246;6.850;2023-02-26T13:31:15;0.80;;;0.80;;
6985;SDS011;3533;51.246;6.850;2023-02-26T13:33:44;1.57;;;0.90;;
6985;SDS011;3533;51.246;6.850;2023-02-26T13:36:12;1.03;;;0.80;;
6985;SDS011;3533;51.246;6.850;2023-02-26T13:38:52;0.80;;;0.70;;
6985;SDS011;3533;51.246;6.850;2023-02-26T13:41:33;1.93;;;0.93;;
6985;SDS011;3533;51.246;6.850;2023-02-26T13:49:41;1.40;;;0.90;;
6985;SDS011;3533;51.246;6.850;2023-02-26T13:52:26;0.80;;;0.80;;
6985;SDS011;3533;51.246;6.850;2023-02-26T13:54:53;2.40;;;0.70;;
6985;SDS011;3533;51.246;6.850;2023-02-26T13:57:43;1.53;;;0.90;;
6985;SDS011;3533;51.246;6.850;2023-02-26T14:00:31;1.03;;;0.90;;
6985;SDS011;3533;51.246;6.850;2023-02-26T14:03:12;0.90;;;0.70;;
6985;SDS011;3533;51.246;6.850;2023-02-26T14:06:05;0.90;;;0.70;;
6985;SDS011;3533;51.246;6.850;2023-02-26T14:11:04;1.07;;;0.70;;
6985;SDS011;3533;51.246;6.850;2023-02-26T14:16:38;0.77;;;0.70;;
6985;SDS011;3533;51.246;6.850;2023-02-26T14:21:47;1.03;;;0.83;;
6985;SDS011;3533;51.246;6.850;2023-02-26T14:26:50;2.27;;;0.80;;
6985;SDS011;3533;51.246;6.850;2023-02-26T14:29:41;1.13;;;0.90;;
6985;SDS011;3533;51.246;6.850;2023-02-26T14:32:12;0.90;;;0.80;;
6985;SDS011;3533;51.246;6.850;2023-02-26T14:34:47;1.20;;;0.70;;
6985;SDS011;3533;51.246;6.850;2023-02-26T14:37:18;2.87;;;0.90;;
6985;SDS011;3533;51.246;6.850;2023-02-26T14:39:47;5.50;;;1.00;;
6985;SDS011;3533;51.246;6.850;2023-02-26T14:48:05;5.10;;;1.00;;
6985;SDS011;3533;51.246;6.850;2023-02-26T14:50:45;5.47;;;1.03;;
6985;SDS011;3533;51.246;6.850;2023-02-26T14:53:52;6.10;;;1.10;;
6985;SDS011;3533;51.246;6.850;2023-02-26T14:56:57;6.83;;;1.43;;
6985;SDS011;3533;51.246;6.850;2023-02-26T15:02:25;1.47;;;0.90;;
6985;SDS011;3533;51.246;6.850;2023-02-26T15:21:34;7.73;;;1.00;;
6985;SDS011;3533;51.246;6.850;2023-02-26T15:24:23;1.20;;;0.90;;
6985;SDS011;3533;51.246;6.850;2023-02-26T15:26:51;4.20;;;1.00;;
6985;SDS011;3533;51.246;6.850;2023-02-26T15:29:20;0.90;;;0.70;;
6985;SDS011;3533;51.246;6.850;2023-02-26T15:31:52;0.90;;;0.70;;
6985;SDS011;3533;51.246;6.850;2023-02-26T15:34:20;1.17;;;0.90;;
6985;SDS011;3533;51.246;6.850;2023-02-26T15:36:48;2.20;;;0.73;;
6985;SDS011;3533;51.246;6.850;2023-02-26T15:39:15;0.80;;;0.70;;
6985;SDS011;3533;51.246;6.850;2023-02-26T15:41:41;4.50;;;0.93;;
6985;SDS011;3533;51.246;6.850;2023-02-26T15:44:09;3.17;;;1.00;;
6985;SDS011;3533;51.246;6.850;2023-02-26T15:46:41;1.10;;;0.93;;
6985;SDS011;3533;51.246;6.850;2023-02-26T15:51:54;0.90;;;0.70;;
6985;SDS011;3533;51.246;6.850;2023-02-26T15:54:22;1.10;;;1.00;;
6985;SDS011;3533;51.246;6.850;2023-02-26T15:56:49;1.30;;;0.73;;
6985;SDS011;3533;51.246;6.850;2023-02-26T15:59:16;0.80;;;0.80;;
6985;SDS011;3533;51.246;6.850;2023-02-26T16:01:44;1.97;;;1.00;;
6985;SDS011;3533;51.246;6.850;2023-02-26T16:04:14;3.30;;;0.77;;
6985;SDS011;3533;51.246;6.850;2023-02-26T16:06:43;0.90;;;0.70;;
6985;SDS011;3533;51.246;6.850;2023-02-26T16:09:17;2.50;;;0.90;;
6985;SDS011;3533;51.246;6.850;2023-02-26T16:11:45;1.53;;;0.77;;
6985;SDS011;3533;51.246;6.850;2023-02-26T16:14:15;0.90;;;0.80;;
6985;SDS011;3533;51.246;6.850;2023-02-26T16:16:47;0.87;;;0.70;;
6985;SDS011;3533;51.246;6.850;2023-02-26T16:19:40;0.83;;;0.77;;
6985;SDS011;3533;51.246;6.850;2023-02-26T16:22:22;0.93;;;0.83;;
6985;SDS011;3533;51.246;6.850;2023-02-26T16:24:57;1.37;;;0.87;;
6985;SDS011;3533;51.246;6.850;2023-02-26T16:27:26;1.60;;;0.67;;
6985;SDS011;3533;51.246;6.850;2023-02-26T16:29:54;1.97;;;0.80;;
6985;SDS011;3533;51.246;6.850;2023-02-26T16:32:23;0.80;;;0.70;;
6985;SDS011;3533;51.246;6.850;2023-02-26T16:34:52;0.80;;;0.70;;
6985;SDS011;3533;51.246;6.850;2023-02-26T16:37:30;1.30;;;0.77;;
6985;SDS011;3533;51.246;6.850;2023-02-26T16:45:31;0.90;;;0.80;;
6985;SDS011;3533;51.246;6.850;2023-02-26T16:48:14;0.90;;;0.80;;
6985;SDS011;3533;51.246;6.850;2023-02-26T16:50:41;1.03;;;0.60;;
6985;SDS011;3533;51.246;6.850;2023-02-26T16:53:07;0.70;;;0.67;;
6985;SDS011;3533;51.246;6.850;2023-02-26T16:55:39;0.90;;;0.70;;
6985;SDS011;3533;51.246;6.850;2023-02-26T16:58:10;1.57;;;1.00;;
6985;SDS011;3533;51.246;6.850;2023-02-26T17:00:38;3.47;;;0.60;;
6985;SDS011;3533;51.246;6.850;2023-02-26T17:03:11;0.87;;;0.83;;
6985;SDS011;3533;51.246;6.850;2023-02-26T17:05:55;0.80;;;0.80;;
6985;SDS011;3533;51.246;6.850;2023-02-26T17:08:29;0.90;;;0.80;;
6985;SDS011;3533;51.246;6.850;2023-02-26T17:11:01;3.90;;;0.80;;
6985;SDS011;3533;51.246;6.850;2023-02-26T17:13:31;0.90;;;0.80;;
6985;SDS011;3533;51.246;6.850;2023-02-26T17:16:01;0.83;;;0.73;;
6985;SDS011;3533;51.246;6.850;2023-02-26T17:18:32;0.80;;;0.80;;
6985;SDS011;3533;51.246;6.850;2023-02-26T17:20:58;1.10;;;0.97;;
6985;SDS011;3533;51.246;6.850;2023-02-26T17:23:28;1.20;;;0.77;;
6985;SDS011;3533;51.246;6.850;2023-02-26T17:25:55;0.93;;;0.80;;
6985;SDS011;3533;51.246;6.850;2023-02-26T17:28:26;0.90;;;0.70;;
6985;SDS011;3533;51.246;6.850;2023-02-26T17:30:55;1.00;;;0.90;;
6985;SDS011;3533;51.246;6.850;2023-02-26T17:33:21;1.10;;;0.90;;
6985;SDS011;3533;51.246;6.850;2023-02-26T17:35:47;1.10;;;1.00;;
6985;SDS011;3533;51.246;6.850;2023-02-26T17:38:14;1.20;;;0.80;;
6985;SDS011;3533;51.246;6.850;2023-02-26T17:40:44;1.37;;;0.90;;
6985;SDS011;3533;51.246;6.850;2023-02-26T17:43:11;1.13;;;0.60;;
6985;SDS011;3533;51.246;6.850;2023-02-26T17:45:38;1.80;;;1.70;;
6985;SDS011;3533;51.246;6.850;2023-02-26T17:48:05;0.80;;;0.70;;
6985;SDS011;3533;51.246;6.850;2023-02-26T17:50:37;0.80;;;0.80;;
6985;SDS011;3533;51.246;6.850;2023-02-26T17:53:04;1.00;;;0.87;;
6985;SDS011;3533;51.246;6.850;2023-02-26T17:55:30;1.10;;;0.87;;
6985;SDS011;3533;51.246;6.850;2023-02-26T17:57:57;0.80;;;0.80;;
6985;SDS011;3533;51.246;6.850;2023-02-26T18:00:23;1.03;;;0.83;;
6985;SDS011;3533;51.246;6.850;2023-02-26T18:02:49;1.10;;;1.00;;
6985;SDS011;3533;51.246;6.850;2023-02-26T18:05:15;1.07;;;0.90;;
6985;SDS011;3533;51.246;6.850;2023-02-26T18:07:42;1.13;;;0.93;;
6985;SDS011;3533;51.246;6.850;2023-02-26T18:10:10;1.43;;;1.23;;
6985;SDS011;3533;51.246;6.850;2023-02-26T18:12:45;1.90;;;1.03;;
6985;SDS011;3533;51.246;6.850;2023-02-26T18:15:11;1.03;;;0.93;;